sensor_id;sensor_type;location;lat;lon;timestamp;P1;durP1;ratioP1;P2;durP2;ratioP2
42518;SDS011;28147;47.520;18.920;2022-08-03T00:00:42;2.28;;;1.45;;
42518;SDS011;28147;47.520;18.920;2022-08-03T00:03:08;1.45;;;1.15;;
42518;SDS011;28147;47.520;18.920;2022-08-03T00:05:34;4.00;;;1.80;;
42518;SDS011;28147;47.520;18.920;2022-08-03T00:08:01;2.80;;;1.15;;
42518;SDS011;28147;47.520;18.920;2022-08-03T00:10:26;2.22;;;1.50;;
42518;SDS011;28147;47.520;18.920;2022-08-03T00:12:52;2.28;;;1.60;;
42518;SDS011;28147;47.520;18.920;2022-08-03T00:15:18;1.60;;;1.10;;
42518;SDS011;28147;47.520;18.920;2022-08-03T00:17:44;3.75;;;2.03;;
42518;SDS011;28147;47.520;18.920;2022-08-03T00:20:10;2.08;;;1.48;;
42518;SDS011;28147;47.520;18.920;2022-08-03T00:22:36;4.20;;;2.20;;
42518;SDS011;28147;47.520;18.920;2022-08-03T00:25:01;2.85;;;1.90;;
42518;SDS011;28147;47.520;18.920;2022-08-03T00:27:27;3.03;;;1.60;;
42518;SDS011;28147;47.520;18.920;2022-08-03T00:29:52;2.88;;;2.28;;
42518;SDS011;28147;47.520;18.920;2022-08-03T00:32:19;3.33;;;2.17;;
42518;SDS011;28147;47.520;18.920;2022-08-03T00:34:44;3.50;;;1.77;;
42518;SDS011;28147;47.520;18.920;2022-08-03T00:37:09;4.00;;;2.00;;
42518;SDS011;28147;47.520;18.920;2022-08-03T00:39:35;4.07;;;1.95;;
42518;SDS011;28147;47.520;18.920;2022-08-03T00:42:01;3.47;;;2.00;;
42518;SDS011;28147;47.520;18.920;2022-08-03T00:44:29;3.03;;;1.80;;
42518;SDS011;28147;47.520;18.920;2022-08-03T00:46:55;4.03;;;2.53;;
42518;SDS011;28147;47.520;18.920;2022-08-03T00:49:21;3.80;;;2.47;;
42518;SDS011;28147;47.520;18.920;2022-08-03T00:51:46;4.18;;;2.55;;
42518;SDS011;28147;47.520;18.920;2022-08-03T00:54:13;4.30;;;2.60;;
42518;SDS011;28147;47.520;18.920;2022-08-03T00:56:39;4.25;;;2.33;;
42518;SDS011;28147;47.520;18.920;2022-08-03T00:59:05;3.88;;;2.78;;
42518;SDS011;28147;47.520;18.920;2022-08-03T01:01:31;3.65;;;2.47;;
42518;SDS011;28147;47.520;18.920;2022-08-03T01:03:56;3.47;;;2.72;;
42518;SDS011;28147;47.520;18.920;2022-08-03T01:06:24;2.72;;;2.00;;
42518;SDS011;28147;47.520;18.920;2022-08-03T01:08:54;3.15;;;2.25;;
42518;SDS011;28147;47.520;18.920;2022-08-03T01:16:29;5.00;;;2.58;;
42518;SDS011;28147;47.520;18.920;2022-08-03T01:22:27;4.35;;;2.40;;
42518;SDS011;28147;47.520;18.920;2022-08-03T01:25:12;4.18;;;2.72;;
42518;SDS011;28147;47.520;18.920;2022-08-03T01:27:50;3.42;;;2.13;;
42518;SDS011;28147;47.520;18.920;2022-08-03T01:30:29;3.78;;;2.45;;
42518;SDS011;28147;47.520;18.920;2022-08-03T01:32:59;4.75;;;3.00;;
42518;SDS011;28147;47.520;18.920;2022-08-03T01:38:06;4.30;;;3.20;;
42518;SDS011;28147;47.520;18.920;2022-08-03T01:40:36;3.15;;;2.35;;
42518;SDS011;28147;47.520;18.920;2022-08-03T01:43:03;5.38;;;2.92;;
42518;SDS011;28147;47.520;18.920;2022-08-03T01:45:32;4.80;;;3.17;;
42518;SDS011;28147;47.520;18.920;2022-08-03T01:47:59;4.20;;;2.65;;
42518;SDS011;28147;47.520;18.920;2022-08-03T01:50:27;3.10;;;2.10;;
42518;SDS011;28147;47.520;18.920;2022-08-03T01:52:53;3.38;;;2.28;;
42518;SDS011;28147;47.520;18.920;2022-08-03T01:55:21;3.10;;;2.15;;
42518;SDS011;28147;47.520;18.920;2022-08-03T01:57:49;4.80;;;2.78;;
42518;SDS011;28147;47.520;18.920;2022-08-03T02:00:16;4.32;;;2.97;;
42518;SDS011;28147;47.520;18.920;2022-08-03T02:02:43;6.53;;;2.95;;
42518;SDS011;28147;47.520;18.920;2022-08-03T02:05:13;4.93;;;2.80;;
42518;SDS011;28147;47.520;18.920;2022-08-03T02:07:40;3.50;;;2.42;;
42518;SDS011;28147;47.520;18.920;2022-08-03T02:10:06;3.55;;;2.45;;
42518;SDS011;28147;47.520;18.920;2022-08-03T02:12:34;3.22;;;2.35;;
42518;SDS011;28147;47.520;18.920;2022-08-03T02:15:02;3.80;;;2.47;;
42518;SDS011;28147;47.520;18.920;2022-08-03T02:17:28;3.70;;;2.53;;
42518;SDS011;28147;47.520;18.920;2022-08-03T02:19:56;6.47;;;2.90;;
42518;SDS011;28147;47.520;18.920;2022-08-03T02:22:24;4.38;;;2.70;;
42518;SDS011;28147;47.520;18.920;2022-08-03T02:24:50;3.40;;;2.28;;
42518;SDS011;28147;47.520;18.920;2022-08-03T02:27:20;4.43;;;2.72;;
42518;SDS011;28147;47.520;18.920;2022-08-03T02:29:50;4.55;;;3.03;;
42518;SDS011;28147;47.520;18.920;2022-08-03T02:32:29;5.00;;;3.10;;
42518;SDS011;28147;47.520;18.920;2022-08-03T02:34:58;4.45;;;2.58;;
42518;SDS011;28147;47.520;18.920;2022-08-03T02:37:27;3.97;;;2.63;;
42518;SDS011;28147;47.520;18.920;2022-08-03T02:39:57;3.97;;;2.53;;
42518;SDS011;28147;47.520;18.920;2022-08-03T02:42:23;3.97;;;2.22;;
42518;SDS011;28147;47.520;18.920;2022-08-03T02:44:53;4.65;;;2.92;;
42518;SDS011;28147;47.520;18.920;2022-08-03T02:47:21;4.07;;;2.60;;
42518;SDS011;28147;47.520;18.920;2022-08-03T02:49:48;4.95;;;2.97;;
42518;SDS011;28147;47.520;18.920;2022-08-03T02:52:15;5.55;;;2.97;;
42518;SDS011;28147;47.520;18.920;2022-08-03T02:54:42;4.00;;;2.80;;
42518;SDS011;28147;47.520;18.920;2022-08-03T02:57:10;6.10;;;3.33;;
42518;SDS011;28147;47.520;18.920;2022-08-03T02:59:38;6.07;;;2.83;;
42518;SDS011;28147;47.520;18.920;2022-08-03T03:02:06;6.00;;;3.00;;
42518;SDS011;28147;47.520;18.920;2022-08-03T03:04:33;5.15;;;2.75;;
42518;SDS011;28147;47.520;18.920;2022-08-03T03:06:59;5.60;;;3.13;;
42518;SDS011;28147;47.520;18.920;2022-08-03T03:09:25;4.22;;;3.00;;
42518;SDS011;28147;47.520;18.920;2022-08-03T03:11:51;3.95;;;2.60;;
42518;SDS011;28147;47.520;18.920;2022-08-03T03:14:18;5.65;;;3.40;;
42518;SDS011;28147;47.520;18.920;2022-08-03T03:16:44;4.10;;;2.92;;
42518;SDS011;28147;47.520;18.920;2022-08-03T03:19:12;5.00;;;3.28;;
42518;SDS011;28147;47.520;18.920;2022-08-03T03:21:39;3.72;;;2.97;;
42518;SDS011;28147;47.520;18.920;2022-08-03T03:24:06;5.93;;;3.92;;
42518;SDS011;28147;47.520;18.920;2022-08-03T03:26:34;5.57;;;3.60;;
42518;SDS011;28147;47.520;18.920;2022-08-03T03:29:00;4.45;;;3.00;;
42518;SDS011;28147;47.520;18.920;2022-08-03T03:31:27;5.75;;;3.60;;
42518;SDS011;28147;47.520;18.920;2022-08-03T03:33:52;4.90;;;3.50;;
42518;SDS011;28147;47.520;18.920;2022-08-03T03:36:21;4.18;;;2.97;;
42518;SDS011;28147;47.520;18.920;2022-08-03T03:38:47;5.63;;;3.45;;
42518;SDS011;28147;47.520;18.920;2022-08-03T03:41:12;3.92;;;2.90;;
42518;SDS011;28147;47.520;18.920;2022-08-03T03:43:38;5.03;;;3.47;;
42518;SDS011;28147;47.520;18.920;2022-08-03T03:46:04;3.83;;;2.70;;
42518;SDS011;28147;47.520;18.920;2022-08-03T03:48:29;4.68;;;3.45;;
42518;SDS011;28147;47.520;18.920;2022-08-03T03:50:55;5.82;;;3.28;;
42518;SDS011;28147;47.520;18.920;2022-08-03T03:53:21;4.65;;;3.05;;
42518;SDS011;28147;47.520;18.920;2022-08-03T03:55:46;4.43;;;3.13;;
42518;SDS011;28147;47.520;18.920;2022-08-03T03:58:12;3.50;;;2.65;;
42518;SDS011;28147;47.520;18.920;2022-08-03T04:00:37;4.75;;;3.28;;
42518;SDS011;28147;47.520;18.920;2022-08-03T04:03:03;4.20;;;2.97;;
42518;SDS011;28147;47.520;18.920;2022-08-03T04:05:28;6.28;;;3.10;;
42518;SDS011;28147;47.520;18.920;2022-08-03T04:08:13;5.20;;;3.00;;
42518;SDS011;28147;47.520;18.920;2022-08-03T04:11:10;3.75;;;2.53;;
42518;SDS011;28147;47.520;18.920;2022-08-03T04:13:50;4.82;;;2.75;;
42518;SDS011;28147;47.520;18.920;2022-08-03T04:19:17;4.60;;;2.97;;
42518;SDS011;28147;47.520;18.920;2022-08-03T04:21:48;4.47;;;3.38;;
42518;SDS011;28147;47.520;18.920;2022-08-03T04:24:16;4.68;;;3.28;;
42518;SDS011;28147;47.520;18.920;2022-08-03T04:26:44;6.15;;;4.03;;
42518;SDS011;28147;47.520;18.920;2022-08-03T04:29:13;7.47;;;3.42;;
42518;SDS011;28147;47.520;18.920;2022-08-03T04:31:39;5.55;;;3.28;;
42518;SDS011;28147;47.520;18.920;2022-08-03T04:34:07;4.88;;;2.83;;
42518;SDS011;28147;47.520;18.920;2022-08-03T04:36:35;4.88;;;3.58;;
42518;SDS011;28147;47.520;18.920;2022-08-03T04:41:32;4.07;;;3.20;;
42518;SDS011;28147;47.520;18.920;2022-08-03T04:44:00;4.72;;;3.10;;
42518;SDS011;28147;47.520;18.920;2022-08-03T04:46:33;5.32;;;2.92;;
42518;SDS011;28147;47.520;18.920;2022-08-03T04:49:01;4.68;;;3.42;;
42518;SDS011;28147;47.520;18.920;2022-08-03T04:51:28;3.67;;;3.00;;
42518;SDS011;28147;47.520;18.920;2022-08-03T04:53:54;5.53;;;3.33;;
42518;SDS011;28147;47.520;18.920;2022-08-03T04:56:19;4.10;;;2.80;;
42518;SDS011;28147;47.520;18.920;2022-08-03T04:58:45;4.43;;;3.15;;
42518;SDS011;28147;47.520;18.920;2022-08-03T05:01:10;7.55;;;4.20;;
42518;SDS011;28147;47.520;18.920;2022-08-03T05:03:35;4.43;;;2.85;;
42518;SDS011;28147;47.520;18.920;2022-08-03T05:06:01;3.72;;;2.72;;
42518;SDS011;28147;47.520;18.920;2022-08-03T05:08:27;3.90;;;2.95;;
42518;SDS011;28147;47.520;18.920;2022-08-03T05:10:52;4.25;;;3.25;;
42518;SDS011;28147;47.520;18.920;2022-08-03T05:13:18;3.97;;;3.15;;
42518;SDS011;28147;47.520;18.920;2022-08-03T05:15:43;8.32;;;3.35;;
42518;SDS011;28147;47.520;18.920;2022-08-03T05:18:09;3.75;;;2.70;;
42518;SDS011;28147;47.520;18.920;2022-08-03T05:20:37;4.38;;;3.00;;
42518;SDS011;28147;47.520;18.920;2022-08-03T05:23:03;3.58;;;2.67;;
42518;SDS011;28147;47.520;18.920;2022-08-03T05:25:29;5.03;;;3.33;;
42518;SDS011;28147;47.520;18.920;2022-08-03T05:27:54;3.78;;;2.92;;
42518;SDS011;28147;47.520;18.920;2022-08-03T05:30:20;4.10;;;3.13;;
42518;SDS011;28147;47.520;18.920;2022-08-03T05:32:45;5.28;;;3.05;;
42518;SDS011;28147;47.520;18.920;2022-08-03T05:35:11;4.47;;;3.03;;
42518;SDS011;28147;47.520;18.920;2022-08-03T05:37:36;6.70;;;3.70;;
42518;SDS011;28147;47.520;18.920;2022-08-03T05:40:02;4.63;;;3.33;;
42518;SDS011;28147;47.520;18.920;2022-08-03T05:42:28;3.67;;;2.42;;
42518;SDS011;28147;47.520;18.920;2022-08-03T05:44:54;6.00;;;3.15;;
42518;SDS011;28147;47.520;18.920;2022-08-03T05:47:19;7.80;;;3.88;;
42518;SDS011;28147;47.520;18.920;2022-08-03T05:49:45;5.80;;;3.35;;
42518;SDS011;28147;47.520;18.920;2022-08-03T05:52:10;5.30;;;3.08;;
42518;SDS011;28147;47.520;18.920;2022-08-03T05:54:36;3.92;;;2.67;;
42518;SDS011;28147;47.520;18.920;2022-08-03T05:57:01;6.32;;;3.13;;
42518;SDS011;28147;47.520;18.920;2022-08-03T05:59:26;4.40;;;2.97;;
42518;SDS011;28147;47.520;18.920;2022-08-03T06:01:52;6.43;;;3.20;;
42518;SDS011;28147;47.520;18.920;2022-08-03T06:04:17;6.45;;;3.30;;
42518;SDS011;28147;47.520;18.920;2022-08-03T06:06:43;5.38;;;2.83;;
42518;SDS011;28147;47.520;18.920;2022-08-03T06:09:08;4.43;;;2.90;;
42518;SDS011;28147;47.520;18.920;2022-08-03T06:11:37;5.60;;;3.33;;
42518;SDS011;28147;47.520;18.920;2022-08-03T06:14:03;4.15;;;3.08;;
42518;SDS011;28147;47.520;18.920;2022-08-03T06:16:28;4.40;;;3.22;;
42518;SDS011;28147;47.520;18.920;2022-08-03T06:18:54;5.68;;;3.35;;
42518;SDS011;28147;47.520;18.920;2022-08-03T06:21:19;6.72;;;3.28;;
42518;SDS011;28147;47.520;18.920;2022-08-03T06:23:45;4.05;;;3.00;;
42518;SDS011;28147;47.520;18.920;2022-08-03T06:26:11;4.90;;;3.47;;
42518;SDS011;28147;47.520;18.920;2022-08-03T06:28:37;4.82;;;3.35;;
42518;SDS011;28147;47.520;18.920;2022-08-03T06:31:03;7.65;;;3.83;;
42518;SDS011;28147;47.520;18.920;2022-08-03T06:33:29;4.90;;;3.45;;
42518;SDS011;28147;47.520;18.920;2022-08-03T06:35:54;4.95;;;3.30;;
42518;SDS011;28147;47.520;18.920;2022-08-03T06:38:19;5.05;;;3.72;;
42518;SDS011;28147;47.520;18.920;2022-08-03T06:40:45;4.20;;;3.10;;
42518;SDS011;28147;47.520;18.920;2022-08-03T06:43:10;5.57;;;3.45;;
42518;SDS011;28147;47.520;18.920;2022-08-03T06:45:38;5.55;;;3.60;;
42518;SDS011;28147;47.520;18.920;2022-08-03T06:48:04;5.20;;;3.65;;
42518;SDS011;28147;47.520;18.920;2022-08-03T06:50:35;5.50;;;3.38;;
42518;SDS011;28147;47.520;18.920;2022-08-03T06:53:02;4.60;;;3.70;;
42518;SDS011;28147;47.520;18.920;2022-08-03T06:55:28;4.93;;;3.28;;
42518;SDS011;28147;47.520;18.920;2022-08-03T06:57:54;5.50;;;3.13;;
42518;SDS011;28147;47.520;18.920;2022-08-03T07:00:20;3.90;;;3.22;;
42518;SDS011;28147;47.520;18.920;2022-08-03T07:02:45;11.50;;;3.83;;
42518;SDS011;28147;47.520;18.920;2022-08-03T07:05:12;5.30;;;3.47;;
42518;SDS011;28147;47.520;18.920;2022-08-03T07:07:38;4.88;;;3.13;;
42518;SDS011;28147;47.520;18.920;2022-08-03T07:10:04;5.45;;;3.60;;
42518;SDS011;28147;47.520;18.920;2022-08-03T07:12:31;5.78;;;3.78;;
42518;SDS011;28147;47.520;18.920;2022-08-03T07:14:57;5.50;;;3.75;;
42518;SDS011;28147;47.520;18.920;2022-08-03T07:17:24;6.82;;;3.67;;
42518;SDS011;28147;47.520;18.920;2022-08-03T07:19:49;5.03;;;3.10;;
42518;SDS011;28147;47.520;18.920;2022-08-03T07:22:15;4.78;;;3.47;;
42518;SDS011;28147;47.520;18.920;2022-08-03T07:24:40;4.57;;;3.58;;
42518;SDS011;28147;47.520;18.920;2022-08-03T07:27:06;11.63;;;4.63;;
42518;SDS011;28147;47.520;18.920;2022-08-03T07:29:35;5.15;;;3.42;;
42518;SDS011;28147;47.520;18.920;2022-08-03T07:32:04;5.25;;;3.70;;
42518;SDS011;28147;47.520;18.920;2022-08-03T07:34:29;5.45;;;4.30;;
42518;SDS011;28147;47.520;18.920;2022-08-03T07:36:55;5.00;;;3.72;;
42518;SDS011;28147;47.520;18.920;2022-08-03T07:39:21;7.47;;;4.05;;
42518;SDS011;28147;47.520;18.920;2022-08-03T07:41:47;5.43;;;3.35;;
42518;SDS011;28147;47.520;18.920;2022-08-03T07:44:15;5.50;;;3.55;;
42518;SDS011;28147;47.520;18.920;2022-08-03T07:46:41;7.85;;;3.80;;
42518;SDS011;28147;47.520;18.920;2022-08-03T07:49:06;5.95;;;3.72;;
42518;SDS011;28147;47.520;18.920;2022-08-03T07:51:32;8.10;;;3.58;;
42518;SDS011;28147;47.520;18.920;2022-08-03T07:53:57;4.90;;;3.08;;
42518;SDS011;28147;47.520;18.920;2022-08-03T07:56:24;5.10;;;3.47;;
42518;SDS011;28147;47.520;18.920;2022-08-03T07:58:50;4.65;;;3.30;;
42518;SDS011;28147;47.520;18.920;2022-08-03T08:01:16;4.10;;;3.03;;
42518;SDS011;28147;47.520;18.920;2022-08-03T08:03:43;4.80;;;3.00;;
42518;SDS011;28147;47.520;18.920;2022-08-03T08:06:09;4.90;;;3.65;;
42518;SDS011;28147;47.520;18.920;2022-08-03T08:08:36;4.85;;;3.40;;
42518;SDS011;28147;47.520;18.920;2022-08-03T08:11:02;6.63;;;4.05;;
42518;SDS011;28147;47.520;18.920;2022-08-03T08:13:27;3.72;;;2.72;;
42518;SDS011;28147;47.520;18.920;2022-08-03T08:15:52;7.63;;;4.03;;
42518;SDS011;28147;47.520;18.920;2022-08-03T08:18:18;5.45;;;3.20;;
42518;SDS011;28147;47.520;18.920;2022-08-03T08:20:44;5.20;;;3.60;;
42518;SDS011;28147;47.520;18.920;2022-08-03T08:23:09;5.07;;;3.35;;
42518;SDS011;28147;47.520;18.920;2022-08-03T08:25:35;4.70;;;3.22;;
42518;SDS011;28147;47.520;18.920;2022-08-03T08:28:00;7.95;;;3.90;;
42518;SDS011;28147;47.520;18.920;2022-08-03T08:30:27;6.10;;;3.45;;
42518;SDS011;28147;47.520;18.920;2022-08-03T08:32:53;4.22;;;3.05;;
42518;SDS011;28147;47.520;18.920;2022-08-03T08:35:19;4.43;;;2.90;;
42518;SDS011;28147;47.520;18.920;2022-08-03T08:37:45;4.75;;;2.80;;
42518;SDS011;28147;47.520;18.920;2022-08-03T08:40:11;5.85;;;3.55;;
42518;SDS011;28147;47.520;18.920;2022-08-03T08:42:37;4.72;;;3.42;;
42518;SDS011;28147;47.520;18.920;2022-08-03T08:45:04;4.10;;;3.25;;
42518;SDS011;28147;47.520;18.920;2022-08-03T08:47:32;4.68;;;3.42;;
42518;SDS011;28147;47.520;18.920;2022-08-03T08:50:00;3.70;;;2.85;;
42518;SDS011;28147;47.520;18.920;2022-08-03T08:52:27;4.20;;;3.08;;
42518;SDS011;28147;47.520;18.920;2022-08-03T08:54:54;4.65;;;3.10;;
42518;SDS011;28147;47.520;18.920;2022-08-03T08:57:34;5.13;;;3.13;;
42518;SDS011;28147;47.520;18.920;2022-08-03T09:00:07;4.18;;;3.30;;
42518;SDS011;28147;47.520;18.920;2022-08-03T09:02:35;4.65;;;3.08;;
42518;SDS011;28147;47.520;18.920;2022-08-03T09:05:01;5.43;;;3.20;;
42518;SDS011;28147;47.520;18.920;2022-08-03T09:07:27;4.60;;;2.50;;
42518;SDS011;28147;47.520;18.920;2022-08-03T09:09:53;7.75;;;3.17;;
42518;SDS011;28147;47.520;18.920;2022-08-03T09:12:19;4.55;;;3.35;;
42518;SDS011;28147;47.520;18.920;2022-08-03T09:14:45;6.43;;;3.88;;
42518;SDS011;28147;47.520;18.920;2022-08-03T09:17:12;4.65;;;3.38;;
42518;SDS011;28147;47.520;18.920;2022-08-03T09:19:37;4.80;;;3.40;;
42518;SDS011;28147;47.520;18.920;2022-08-03T09:22:09;7.55;;;3.80;;
42518;SDS011;28147;47.520;18.920;2022-08-03T09:24:37;6.45;;;3.47;;
42518;SDS011;28147;47.520;18.920;2022-08-03T09:27:18;4.70;;;3.55;;
42518;SDS011;28147;47.520;18.920;2022-08-03T09:29:51;6.35;;;3.13;;
42518;SDS011;28147;47.520;18.920;2022-08-03T09:32:21;4.60;;;3.35;;
42518;SDS011;28147;47.520;18.920;2022-08-03T09:34:48;5.72;;;3.15;;
42518;SDS011;28147;47.520;18.920;2022-08-03T09:37:15;5.75;;;2.63;;
42518;SDS011;28147;47.520;18.920;2022-08-03T09:39:44;3.58;;;2.67;;
42518;SDS011;28147;47.520;18.920;2022-08-03T09:44:46;6.10;;;3.05;;
42518;SDS011;28147;47.520;18.920;2022-08-03T09:47:14;5.55;;;3.30;;
42518;SDS011;28147;47.520;18.920;2022-08-03T09:49:57;6.88;;;3.55;;
42518;SDS011;28147;47.520;18.920;2022-08-03T09:52:32;3.67;;;2.53;;
42518;SDS011;28147;47.520;18.920;2022-08-03T09:55:08;4.20;;;3.00;;
42518;SDS011;28147;47.520;18.920;2022-08-03T09:57:34;3.25;;;2.38;;
42518;SDS011;28147;47.520;18.920;2022-08-03T10:00:05;4.75;;;3.03;;
42518;SDS011;28147;47.520;18.920;2022-08-03T10:02:34;3.95;;;2.40;;
42518;SDS011;28147;47.520;18.920;2022-08-03T10:05:00;4.80;;;2.70;;
42518;SDS011;28147;47.520;18.920;2022-08-03T10:07:25;4.25;;;2.85;;
42518;SDS011;28147;47.520;18.920;2022-08-03T10:12:19;5.20;;;2.65;;
42518;SDS011;28147;47.520;18.920;2022-08-03T10:14:45;2.80;;;2.33;;
42518;SDS011;28147;47.520;18.920;2022-08-03T10:17:11;5.78;;;3.08;;
42518;SDS011;28147;47.520;18.920;2022-08-03T10:19:36;4.55;;;2.30;;
42518;SDS011;28147;47.520;18.920;2022-08-03T10:22:03;4.20;;;2.90;;
42518;SDS011;28147;47.520;18.920;2022-08-03T10:24:34;4.28;;;2.70;;
42518;SDS011;28147;47.520;18.920;2022-08-03T10:27:05;2.63;;;2.15;;
42518;SDS011;28147;47.520;18.920;2022-08-03T10:29:34;3.95;;;2.30;;
42518;SDS011;28147;47.520;18.920;2022-08-03T10:32:03;2.92;;;2.17;;
42518;SDS011;28147;47.520;18.920;2022-08-03T10:34:35;3.70;;;2.40;;
42518;SDS011;28147;47.520;18.920;2022-08-03T10:37:06;5.55;;;3.00;;
42518;SDS011;28147;47.520;18.920;2022-08-03T10:39:34;4.50;;;3.13;;
42518;SDS011;28147;47.520;18.920;2022-08-03T10:42:00;3.72;;;3.03;;
42518;SDS011;28147;47.520;18.920;2022-08-03T10:44:29;3.95;;;3.15;;
42518;SDS011;28147;47.520;18.920;2022-08-03T10:47:03;5.65;;;2.83;;
42518;SDS011;28147;47.520;18.920;2022-08-03T10:49:29;3.35;;;2.22;;
42518;SDS011;28147;47.520;18.920;2022-08-03T10:51:56;5.53;;;2.90;;
42518;SDS011;28147;47.520;18.920;2022-08-03T11:00:06;5.07;;;2.70;;
42518;SDS011;28147;47.520;18.920;2022-08-03T11:05:27;6.07;;;3.10;;
42518;SDS011;28147;47.520;18.920;2022-08-03T11:10:50;8.43;;;3.75;;
42518;SDS011;28147;47.520;18.920;2022-08-03T11:13:18;4.10;;;2.60;;
42518;SDS011;28147;47.520;18.920;2022-08-03T11:15:47;6.20;;;2.93;;
42518;SDS011;28147;47.520;18.920;2022-08-03T11:18:15;7.47;;;2.97;;
42518;SDS011;28147;47.520;18.920;2022-08-03T11:20:54;6.90;;;3.05;;
42518;SDS011;28147;47.520;18.920;2022-08-03T11:26:17;2.97;;;2.50;;
42518;SDS011;28147;47.520;18.920;2022-08-03T11:28:44;3.63;;;2.40;;
42518;SDS011;28147;47.520;18.920;2022-08-03T11:34:04;4.47;;;2.22;;
42518;SDS011;28147;47.520;18.920;2022-08-03T11:39:40;6.00;;;3.40;;
42518;SDS011;28147;47.520;18.920;2022-08-03T11:44:57;3.05;;;2.42;;
42518;SDS011;28147;47.520;18.920;2022-08-03T11:47:24;3.10;;;2.05;;
42518;SDS011;28147;47.520;18.920;2022-08-03T11:49:53;6.47;;;2.60;;
42518;SDS011;28147;47.520;18.920;2022-08-03T11:52:21;5.25;;;3.08;;
42518;SDS011;28147;47.520;18.920;2022-08-03T11:54:51;5.45;;;2.75;;
42518;SDS011;28147;47.520;18.920;2022-08-03T11:57:30;2.75;;;2.05;;
42518;SDS011;28147;47.520;18.920;2022-08-03T11:59:56;6.13;;;2.92;;
42518;SDS011;28147;47.520;18.920;2022-08-03T12:02:22;4.43;;;2.40;;
42518;SDS011;28147;47.520;18.920;2022-08-03T12:04:48;3.03;;;2.03;;
42518;SDS011;28147;47.520;18.920;2022-08-03T12:07:27;3.38;;;2.70;;
42518;SDS011;28147;47.520;18.920;2022-08-03T12:10:10;4.25;;;2.65;;
42518;SDS011;28147;47.520;18.920;2022-08-03T12:12:37;2.70;;;2.20;;
42518;SDS011;28147;47.520;18.920;2022-08-03T12:15:05;2.95;;;2.08;;
42518;SDS011;28147;47.520;18.920;2022-08-03T12:17:40;2.85;;;2.17;;
42518;SDS011;28147;47.520;18.920;2022-08-03T12:20:06;2.92;;;2.05;;
42518;SDS011;28147;47.520;18.920;2022-08-03T12:22:44;3.30;;;2.50;;
42518;SDS011;28147;47.520;18.920;2022-08-03T12:25:17;3.05;;;2.00;;
42518;SDS011;28147;47.520;18.920;2022-08-03T12:27:50;2.92;;;2.05;;
42518;SDS011;28147;47.520;18.920;2022-08-03T12:30:17;3.83;;;2.45;;
42518;SDS011;28147;47.520;18.920;2022-08-03T12:32:43;3.22;;;2.47;;
42518;SDS011;28147;47.520;18.920;2022-08-03T12:35:09;5.03;;;2.40;;
42518;SDS011;28147;47.520;18.920;2022-08-03T12:37:46;3.97;;;2.00;;
42518;SDS011;28147;47.520;18.920;2022-08-03T12:40:12;3.33;;;2.35;;
42518;SDS011;28147;47.520;18.920;2022-08-03T12:42:39;3.65;;;2.92;;
42518;SDS011;28147;47.520;18.920;2022-08-03T12:48:01;3.40;;;2.53;;
42518;SDS011;28147;47.520;18.920;2022-08-03T12:50:31;4.65;;;2.08;;
42518;SDS011;28147;47.520;18.920;2022-08-03T12:52:59;4.63;;;1.92;;
42518;SDS011;28147;47.520;18.920;2022-08-03T12:55:26;3.67;;;2.60;;
42518;SDS011;28147;47.520;18.920;2022-08-03T12:58:01;3.15;;;2.33;;
42518;SDS011;28147;47.520;18.920;2022-08-03T13:00:28;4.53;;;2.15;;
42518;SDS011;28147;47.520;18.920;2022-08-03T13:03:01;3.08;;;2.20;;
42518;SDS011;28147;47.520;18.920;2022-08-03T13:05:28;4.10;;;2.95;;
42518;SDS011;28147;47.520;18.920;2022-08-03T13:07:53;3.80;;;2.63;;
42518;SDS011;28147;47.520;18.920;2022-08-03T13:10:30;4.43;;;2.25;;
42518;SDS011;28147;47.520;18.920;2022-08-03T13:12:57;3.30;;;2.30;;
42518;SDS011;28147;47.520;18.920;2022-08-03T13:15:24;2.92;;;1.92;;
42518;SDS011;28147;47.520;18.920;2022-08-03T13:17:52;3.20;;;2.58;;
42518;SDS011;28147;47.520;18.920;2022-08-03T13:20:18;8.05;;;2.95;;
42518;SDS011;28147;47.520;18.920;2022-08-03T13:22:45;3.95;;;2.55;;
42518;SDS011;28147;47.520;18.920;2022-08-03T13:25:12;4.88;;;2.90;;
42518;SDS011;28147;47.520;18.920;2022-08-03T13:27:38;4.25;;;2.88;;
42518;SDS011;28147;47.520;18.920;2022-08-03T13:30:04;7.00;;;2.63;;
42518;SDS011;28147;47.520;18.920;2022-08-03T13:32:31;3.60;;;2.20;;
42518;SDS011;28147;47.520;18.920;2022-08-03T13:34:57;3.85;;;2.75;;
42518;SDS011;28147;47.520;18.920;2022-08-03T13:37:23;3.30;;;2.08;;
42518;SDS011;28147;47.520;18.920;2022-08-03T13:39:48;3.03;;;2.00;;
42518;SDS011;28147;47.520;18.920;2022-08-03T13:42:14;2.25;;;2.05;;
42518;SDS011;28147;47.520;18.920;2022-08-03T13:44:39;3.75;;;2.80;;
42518;SDS011;28147;47.520;18.920;2022-08-03T13:47:04;4.35;;;2.60;;
42518;SDS011;28147;47.520;18.920;2022-08-03T13:49:30;4.93;;;2.60;;
42518;SDS011;28147;47.520;18.920;2022-08-03T13:51:55;3.10;;;2.30;;
42518;SDS011;28147;47.520;18.920;2022-08-03T13:54:21;2.92;;;2.10;;
42518;SDS011;28147;47.520;18.920;2022-08-03T13:56:47;2.83;;;2.25;;
42518;SDS011;28147;47.520;18.920;2022-08-03T13:59:20;6.85;;;2.90;;
42518;SDS011;28147;47.520;18.920;2022-08-03T14:01:47;2.78;;;2.30;;
42518;SDS011;28147;47.520;18.920;2022-08-03T14:04:13;2.83;;;2.10;;
42518;SDS011;28147;47.520;18.920;2022-08-03T14:06:39;4.40;;;3.10;;
42518;SDS011;28147;47.520;18.920;2022-08-03T14:09:04;3.10;;;2.22;;
42518;SDS011;28147;47.520;18.920;2022-08-03T14:11:30;5.55;;;3.03;;
42518;SDS011;28147;47.520;18.920;2022-08-03T14:13:55;3.33;;;1.90;;
42518;SDS011;28147;47.520;18.920;2022-08-03T14:16:21;5.18;;;3.60;;
42518;SDS011;28147;47.520;18.920;2022-08-03T14:18:46;3.85;;;2.40;;
42518;SDS011;28147;47.520;18.920;2022-08-03T14:21:12;3.65;;;2.55;;
42518;SDS011;28147;47.520;18.920;2022-08-03T14:23:37;2.88;;;1.98;;
42518;SDS011;28147;47.520;18.920;2022-08-03T14:26:03;2.75;;;2.13;;
42518;SDS011;28147;47.520;18.920;2022-08-03T14:28:30;2.47;;;1.80;;
42518;SDS011;28147;47.520;18.920;2022-08-03T14:30:56;3.60;;;2.25;;
42518;SDS011;28147;47.520;18.920;2022-08-03T14:33:21;3.38;;;2.35;;
42518;SDS011;28147;47.520;18.920;2022-08-03T14:35:47;6.55;;;2.70;;
42518;SDS011;28147;47.520;18.920;2022-08-03T14:38:13;3.17;;;1.90;;
42518;SDS011;28147;47.520;18.920;2022-08-03T14:40:39;3.60;;;2.20;;
42518;SDS011;28147;47.520;18.920;2022-08-03T14:43:05;3.40;;;2.58;;
42518;SDS011;28147;47.520;18.920;2022-08-03T14:45:30;5.53;;;2.28;;
42518;SDS011;28147;47.520;18.920;2022-08-03T14:47:56;4.32;;;2.28;;
42518;SDS011;28147;47.520;18.920;2022-08-03T14:50:24;3.55;;;2.33;;
42518;SDS011;28147;47.520;18.920;2022-08-03T14:52:50;10.00;;;3.50;;
42518;SDS011;28147;47.520;18.920;2022-08-03T14:55:16;3.47;;;2.25;;
42518;SDS011;28147;47.520;18.920;2022-08-03T14:57:41;4.38;;;2.40;;
42518;SDS011;28147;47.520;18.920;2022-08-03T15:00:07;5.10;;;2.33;;
42518;SDS011;28147;47.520;18.920;2022-08-03T15:02:33;4.30;;;2.35;;
42518;SDS011;28147;47.520;18.920;2022-08-03T15:04:58;4.88;;;2.65;;
42518;SDS011;28147;47.520;18.920;2022-08-03T15:07:24;7.88;;;2.65;;
42518;SDS011;28147;47.520;18.920;2022-08-03T15:09:49;3.63;;;2.30;;
42518;SDS011;28147;47.520;18.920;2022-08-03T15:12:14;4.32;;;2.72;;
42518;SDS011;28147;47.520;18.920;2022-08-03T15:14:40;3.25;;;2.15;;
42518;SDS011;28147;47.520;18.920;2022-08-03T15:17:05;3.70;;;2.70;;
42518;SDS011;28147;47.520;18.920;2022-08-03T15:19:31;4.93;;;3.08;;
42518;SDS011;28147;47.520;18.920;2022-08-03T15:21:57;4.10;;;2.30;;